Time;durP1;ratioP1;P1;durP2;ratioP2;P2;SDS_P1;SDS_P2;PMS_P1;PMS_P2;Temp;Humidity;BMP_temperature;BMP_pressure;BME280_temperature;BME280_humidity;BME280_pressure;Samples;Min_cycle;Max_cycle;Signal;HPM_P1;HPM_P2
2024/01/29 00:00:19;;;;;;;3.85;1.50;;;;;;;-148.88;80.30;-17125.47;5073584;28;20024;-88
2024/01/29 00:02:48;;;;;;;3.53;1.60;;;;;;;-148.88;80.84;-17125.47;5073396;28;20044;-87
2024/01/29 00:05:18;;;;;;;4.65;1.58;;;;;;;-148.88;80.62;-17125.47;5073182;28;20028;-87
2024/01/29 00:07:44;;;;;;;3.00;1.63;;;;;;;-148.88;81.83;-17125.47;5074833;28;20026;-87
2024/01/29 00:10:09;;;;;;;3.45;2.00;;;;;;;-148.88;82.71;-17125.47;5072618;28;20036;-88
2024/01/29 00:12:41;;;;;;;4.75;1.60;;;;;;;-148.88;82.05;-17125.47;5072978;28;20024;-88
2024/01/29 00:15:07;;;;;;;4.20;1.60;;;;;;;-148.88;82.78;-17125.47;5072884;28;20056;-87
2024/01/29 00:17:32;;;;;;;2.88;1.50;;;;;;;-148.88;82.00;-17125.47;5072832;28;20454;-88
2024/01/29 00:20:00;;;;;;;3.40;1.60;;;;;;;-148.88;81.00;-17125.47;5073956;28;20031;-88
2024/01/29 00:22:26;;;;;;;3.38;1.27;;;;;;;-148.88;79.93;-17125.47;5072999;28;20489;-88
2024/01/29 00:24:51;;;;;;;6.72;1.50;;;;;;;-148.88;79.29;-17125.47;5072531;28;20027;-88
2024/01/29 00:27:18;;;;;;;6.03;1.30;;;;;;;-148.88;78.60;-17125.47;5072846;28;20033;-87
2024/01/29 00:29:44;;;;;;;2.65;1.40;;;;;;;-148.88;77.68;-17125.47;5072664;28;20042;-87
2024/01/29 00:32:09;;;;;;;2.78;1.27;;;;;;;-148.88;77.04;-17125.47;5072787;28;20119;-87
2024/01/29 00:34:40;;;;;;;4.18;1.60;;;;;;;-148.88;77.49;-17125.47;5072433;28;20379;-87
2024/01/29 00:37:05;;;;;;;3.38;1.40;;;;;;;-148.88;77.36;-17125.47;5073729;28;20036;-88
2024/01/29 00:39:31;;;;;;;4.10;1.90;;;;;;;-148.88;77.33;-17125.47;5072453;28;20426;-86
2024/01/29 00:42:07;;;;;;;2.65;1.40;;;;;;;-148.88;78.10;-17125.47;5073634;28;20016;-88
2024/01/29 00:44:42;;;;;;;3.08;1.48;;;;;;;-148.88;77.89;-17125.47;5073833;28;20017;-88
2024/01/29 00:47:09;;;;;;;3.08;1.40;;;;;;;-148.88;78.39;-17125.47;5074343;28;20031;-88
2024/01/29 00:49:35;;;;;;;4.90;1.67;;;;;;;-148.88;77.99;-17125.47;5073622;28;20020;-87
2024/01/29 00:52:02;;;;;;;6.95;1.70;;;;;;;-148.88;78.25;-17125.47;5072761;28;20483;-87
2024/01/29 00:54:27;;;;;;;3.60;1.40;;;;;;;-148.88;77.99;-17125.47;5072484;28;20021;-88
2024/01/29 00:56:55;;;;;;;5.13;1.73;;;;;;;-148.88;77.93;-17125.47;5072190;28;20398;-87
2024/01/29 00:59:20;;;;;;;3.08;1.75;;;;;;;-148.88;78.31;-17125.47;5073411;28;20021;-88
2024/01/29 01:01:46;;;;;;;3.20;1.30;;;;;;;-148.88;79.09;-17125.47;5072360;28;20082;-86
2024/01/29 01:04:11;;;;;;;3.88;1.60;;;;;;;-148.88;78.33;-17125.47;5072967;28;20025;-88
2024/01/29 01:06:37;;;;;;;3.80;1.30;;;;;;;-148.88;78.89;-17125.47;5072369;28;20032;-87
2024/01/29 01:09:06;;;;;;;3.45;1.42;;;;;;;-148.88;78.25;-17125.47;5073242;28;20024;-88
2024/01/29 01:11:37;;;;;;;4.10;1.40;;;;;;;-148.88;78.39;-17125.47;5072419;28;20052;-87
2024/01/29 01:14:05;;;;;;;3.85;1.73;;;;;;;-148.88;78.29;-17125.47;5072170;28;20548;-88
2024/01/29 01:16:31;;;;;;;3.47;1.33;;;;;;;-148.88;77.95;-17125.47;5071918;28;20021;-88
2024/01/29 01:18:59;;;;;;;2.60;1.60;;;;;;;-148.88;78.30;-17125.47;5072827;28;20058;-88
2024/01/29 01:21:25;;;;;;;2.60;1.30;;;;;;;-148.88;78.62;-17125.47;5072299;28;20024;-87
2024/01/29 01:23:52;;;;;;;3.67;1.52;;;;;;;-148.88;79.40;-17125.47;5072165;28;20108;-88
2024/01/29 01:26:18;;;;;;;2.90;1.17;;;;;;;-148.88;80.29;-17125.47;5072093;28;20402;-88
2024/01/29 01:28:43;;;;;;;2.13;1.20;;;;;;;-148.88;80.96;-17125.47;5072323;28;20120;-87
2024/01/29 01:31:08;;;;;;;4.00;1.58;;;;;;;-148.88;80.70;-17125.47;5073668;28;20453;-88
2024/01/29 01:33:34;;;;;;;2.25;1.23;;;;;;;-148.88;80.64;-17125.47;5071750;28;20070;-88
2024/01/29 01:35:59;;;;;;;3.60;1.50;;;;;;;-148.88;80.67;-17125.47;5071671;28;20033;-88
2024/01/29 01:38:25;;;;;;;3.50;1.15;;;;;;;-148.88;80.10;-17125.47;5072667;28;20107;-87
2024/01/29 01:40:50;;;;;;;3.45;1.85;;;;;;;-148.88;79.54;-17125.47;5072050;28;20024;-88
2024/01/29 01:43:21;;;;;;;3.35;1.58;;;;;;;-148.88;79.43;-17125.47;5071803;28;20021;-88
2024/01/29 01:46:04;;;;;;;2.78;1.40;;;;;;;-148.88;79.79;-17125.47;5071978;28;20033;-88
2024/01/29 01:48:38;;;;;;;4.20;1.30;;;;;;;-148.88;81.12;-17125.47;5072592;28;20528;-88
2024/01/29 01:51:05;;;;;;;4.18;1.63;;;;;;;-148.88;80.55;-17125.47;5073270;28;20028;-88
2024/01/29 01:53:34;;;;;;;3.80;1.15;;;;;;;-148.88;79.23;-17125.47;5073163;28;20482;-88
2024/01/29 01:56:00;;;;;;;3.72;1.63;;;;;;;-148.88;80.02;-17125.47;5073183;28;20025;-88
2024/01/29 01:58:27;;;;;;;3.58;1.55;;;;;;;-148.88;79.58;-17125.47;5071537;28;20071;-88
2024/01/29 02:00:55;;;;;;;4.95;1.50;;;;;;;-148.88;79.36;-17125.47;5073068;28;20433;-87
2024/01/29 02:03:20;;;;;;;3.92;1.40;;;;;;;-148.88;79.67;-17125.47;5071872;28;20078;-87
2024/01/29 02:05:46;;;;;;;2.97;1.40;;;;;;;-148.88;80.40;-17125.47;5072056;28;20032;-88
2024/01/29 02:08:13;;;;;;;4.10;1.48;;;;;;;-148.88;80.50;-17125.47;5071429;28;20052;-87
2024/01/29 02:10:39;;;;;;;3.22;1.48;;;;;;;-148.88;80.74;-17125.47;5071664;28;20021;-87
2024/01/29 02:13:11;;;;;;;3.90;1.55;;;;;;;-148.88;80.19;-17125.47;5075831;28;20020;-88
2024/01/29 02:15:36;;;;;;;3.10;1.38;;;;;;;-148.88;80.67;-17125.47;5074726;28;20105;-86
2024/01/29 02:18:01;;;;;;;3.78;1.23;;;;;;;-148.88;80.35;-17125.47;5075272;28;20088;-88
2024/01/29 02:20:27;;;;;;;3.85;1.42;;;;;;;-148.88;79.20;-17125.47;5076871;28;20032;-88
2024/01/29 02:22:55;;;;;;;3.40;1.30;;;;;;;-148.88;80.75;-17125.47;5075953;28;20024;-88
2024/01/29 02:25:20;;;;;;;3.92;1.30;;;;;;;-148.88;80.33;-17125.47;5076605;28;20099;-88
2024/01/29 02:27:46;;;;;;;3.35;1.55;;;;;;;-148.88;81.38;-17125.47;5075018;28;20074;-88
2024/01/29 02:30:17;;;;;;;3.97;1.45;;;;;;;-148.88;83.01;-17125.47;5074328;28;20440;-88
2024/01/29 02:32:42;;;;;;;2.90;1.48;;;;;;;-148.88;82.80;-17125.47;5074499;28;20025;-88
2024/01/29 02:35:08;;;;;;;4.78;1.45;;;;;;;-148.88;83.61;-17125.47;5074897;28;20023;-87
2024/01/29 02:37:34;;;;;;;3.55;1.52;;;;;;;-148.88;83.28;-17125.47;5075135;28;20537;-88
2024/01/29 02:40:00;;;;;;;5.75;2.33;;;;;;;-148.88;82.95;-17125.47;5073328;28;20025;-87
2024/01/29 02:42:31;;;;;;;2.90;1.42;;;;;;;-148.88;83.90;-17125.47;5073275;28;20070;-87
2024/01/29 02:44:56;;;;;;;3.58;1.30;;;;;;;-148.88;84.15;-17125.47;5073770;28;20070;-87
2024/01/29 02:47:22;;;;;;;3.72;1.67;;;;;;;-148.88;84.51;-17125.47;5073496;28;20403;-88
2024/01/29 02:49:47;;;;;;;3.13;1.60;;;;;;;-148.88;84.71;-17125.47;5073665;28;20442;-88
2024/01/29 02:52:13;;;;;;;3.03;1.45;;;;;;;-148.88;85.15;-17125.47;5073582;28;20111;-87
2024/01/29 02:54:39;;;;;;;4.60;1.48;;;;;;;-148.88;85.12;-17125.47;5074848;28;20021;-88
2024/01/29 02:57:05;;;;;;;3.63;1.40;;;;;;;-148.88;84.93;-17125.47;5073141;28;20051;-88
2024/01/29 02:59:30;;;;;;;4.45;1.20;;;;;;;-148.88;85.25;-17125.47;5073100;28;20475;-87
2024/01/29 03:01:56;;;;;;;3.90;1.60;;;;;;;-148.88;85.36;-17125.47;5073113;28;20057;-88
2024/01/29 03:04:22;;;;;;;2.75;1.40;;;;;;;-148.88;85.53;-17125.47;5074471;28;20021;-88
2024/01/29 03:06:47;;;;;;;4.40;1.55;;;;;;;-148.88;85.50;-17125.47;5074403;28;20399;-87
2024/01/29 03:09:14;;;;;;;4.30;1.90;;;;;;;-148.88;85.28;-17125.47;5073631;28;20056;-87
2024/01/29 03:11:43;;;;;;;3.75;1.80;;;;;;;-148.88;84.89;-17125.47;5072978;28;20033;-87
2024/01/29 03:14:08;;;;;;;3.33;1.52;;;;;;;-148.88;85.57;-17125.47;5073149;28;20107;-88
2024/01/29 03:16:34;;;;;;;3.78;1.90;;;;;;;-148.88;85.39;-17125.47;5074531;28;20059;-88
2024/01/29 03:19:00;;;;;;;3.03;1.45;;;;;;;-148.88;85.86;-17125.47;5072971;28;20021;-87
2024/01/29 03:21:27;;;;;;;3.60;1.40;;;;;;;-148.88;85.52;-17125.47;5072805;28;20024;-88
2024/01/29 03:23:56;;;;;;;3.20;1.50;;;;;;;-148.88;84.70;-17125.47;5071660;28;20063;-88
2024/01/29 03:26:22;;;;;;;3.75;1.45;;;;;;;-148.88;86.60;-17125.47;5074201;28;20399;-88
2024/01/29 03:28:48;;;;;;;3.53;1.67;;;;;;;-148.88;86.58;-17125.47;5035286;28;1124819;-88
2024/01/29 03:31:13;;;;;;;3.75;1.30;;;;;;;-148.88;87.21;-17125.47;5074862;28;20646;-88
2024/01/29 03:33:39;;;;;;;3.17;1.27;;;;;;;-148.88;87.18;-17125.47;5073514;28;20507;-88
2024/01/29 03:36:07;;;;;;;5.28;1.70;;;;;;;-148.88;87.80;-17125.47;5074877;28;20071;-88
2024/01/29 03:38:34;;;;;;;3.83;1.80;;;;;;;-148.88;88.58;-17125.47;5073498;28;20025;-88
2024/01/29 03:41:00;;;;;;;3.45;1.58;;;;;;;-148.88;88.58;-17125.47;5074983;28;20095;-88
2024/01/29 03:43:30;;;;;;;6.85;1.90;;;;;;;-148.88;89.12;-17125.47;5075053;28;20050;-88
2024/01/29 03:45:55;;;;;;;3.65;1.95;;;;;;;-148.88;88.93;-17125.47;5073529;28;20036;-88
2024/01/29 03:48:21;;;;;;;5.22;1.88;;;;;;;-148.88;89.92;-17125.47;5074633;28;20498;-88
2024/01/29 03:50:47;;;;;;;3.67;1.60;;;;;;;-148.88;90.32;-17125.47;5074810;28;20027;-88
2024/01/29 03:53:12;;;;;;;5.55;1.80;;;;;;;-148.88;90.27;-17125.47;5074031;28;20139;-88
2024/01/29 03:55:38;;;;;;;2.72;1.55;;;;;;;-148.88;90.26;-17125.47;5074363;28;20020;-87
2024/01/29 03:58:03;;;;;;;3.95;1.65;;;;;;;-148.88;90.30;-17125.47;5073573;28;20274;-88
2024/01/29 04:00:30;;;;;;;4.22;1.75;;;;;;;-148.88;89.30;-17125.47;5074820;28;20089;-88
2024/01/29 04:02:56;;;;;;;3.50;1.90;;;;;;;-148.88;88.67;-17125.47;5072893;28;20039;-88
2024/01/29 04:05:21;;;;;;;7.13;1.83;;;;;;;-148.88;88.32;-17125.47;5074258;28;20028;-88
2024/01/29 04:07:50;;;;;;;7.88;1.52;;;;;;;-148.88;88.24;-17125.47;5073244;28;20047;-88
2024/01/29 04:10:16;;;;;;;3.88;1.50;;;;;;;-148.88;87.93;-17125.47;5072953;28;20101;-88
2024/01/29 04:12:42;;;;;;;2.65;1.40;;;;;;;-148.88;86.96;-17125.47;5072696;28;20423;-87
2024/01/29 04:15:10;;;;;;;4.90;1.88;;;;;;;-148.88;86.52;-17125.47;5071998;28;20036;-88
2024/01/29 04:17:36;;;;;;;3.20;1.33;;;;;;;-148.88;86.99;-17125.47;5072787;28;20028;-87
2024/01/29 04:20:05;;;;;;;4.15;1.48;;;;;;;-148.88;85.93;-17125.47;5072642;28;20035;-88
2024/01/29 04:22:34;;;;;;;3.28;1.63;;;;;;;-148.88;85.79;-17125.47;5073726;28;20016;-87
2024/01/29 04:25:04;;;;;;;4.68;1.60;;;;;;;-148.88;86.31;-17125.47;5074449;28;20039;-86
2024/01/29 04:27:29;;;;;;;3.22;1.60;;;;;;;-148.88;87.20;-17125.47;5072496;28;20024;-86
2024/01/29 04:29:55;;;;;;;4.43;2.10;;;;;;;-148.88;87.15;-17125.47;5073218;28;20047;-87
2024/01/29 04:32:20;;;;;;;4.30;1.40;;;;;;;-148.88;87.06;-17125.47;5073949;28;20052;-87
2024/01/29 04:34:47;;;;;;;4.47;1.90;;;;;;;-148.88;87.08;-17125.47;5074123;28;20467;-88
2024/01/29 04:37:13;;;;;;;3.88;1.65;;;;;;;-148.88;86.78;-17125.47;5072493;28;20078;-87
2024/01/29 04:39:38;;;;;;;3.17;1.38;;;;;;;-148.88;86.80;-17125.47;5073834;28;20025;-87
2024/01/29 04:42:07;;;;;;;3.28;1.48;;;;;;;-148.88;86.03;-17125.47;5072302;28;20031;-87
2024/01/29 04:44:32;;;;;;;4.97;2.08;;;;;;;-148.88;85.80;-17125.47;5072628;28;20051;-87
2024/01/29 04:46:58;;;;;;;3.15;1.70;;;;;;;-148.88;84.93;-17125.47;5072470;28;20051;-88
2024/01/29 04:49:24;;;;;;;6.47;2.30;;;;;;;-148.88;84.89;-17125.47;5072369;28;20034;-87
2024/01/29 04:51:49;;;;;;;6.75;1.80;;;;;;;-148.88;85.10;-17125.47;5072699;28;20123;-88
2024/01/29 04:54:15;;;;;;;5.88;1.92;;;;;;;-148.88;85.42;-17125.47;5072880;28;20019;-88
2024/01/29 04:56:40;;;;;;;3.78;1.75;;;;;;;-148.88;85.18;-17125.47;5073526;28;20477;-88
2024/01/29 04:59:06;;;;;;;9.82;2.13;;;;;;;-148.88;85.17;-17125.47;5072189;28;20032;-88
2024/01/29 05:01:31;;;;;;;2.80;1.23;;;;;;;-148.88;85.32;-17125.47;5072363;28;20024;-86
2024/01/29 05:03:57;;;;;;;3.60;1.90;;;;;;;-148.88;86.18;-17125.47;5073242;28;20020;-86
2024/01/29 05:06:23;;;;;;;2.85;1.42;;;;;;;-148.88;87.63;-17125.47;5071847;28;20031;-86
2024/01/29 05:08:48;;;;;;;4.22;1.40;;;;;;;-148.88;88.36;-17125.47;5072631;28;20036;-86
2024/01/29 05:11:14;;;;;;;5.03;1.50;;;;;;;-148.88;88.11;-17125.47;5074234;28;20035;-87
2024/01/29 05:13:40;;;;;;;4.13;1.35;;;;;;;-148.88;87.83;-17125.47;5072432;28;20021;-88
2024/01/29 05:16:11;;;;;;;3.40;2.13;;;;;;;-148.88;87.94;-17125.47;5071802;28;20509;-88
2024/01/29 05:18:37;;;;;;;2.65;1.27;;;;;;;-148.88;87.69;-17125.47;5073377;28;20020;-89
2024/01/29 05:21:03;;;;;;;2.80;1.55;;;;;;;-148.88;87.75;-17125.47;5072302;28;20023;-88
2024/01/29 05:23:29;;;;;;;3.95;1.58;;;;;;;-148.88;88.01;-17125.47;5073449;28;20024;-88
2024/01/29 05:25:55;;;;;;;3.55;1.40;;;;;;;-148.88;87.16;-17125.47;5071908;28;20024;-88
2024/01/29 05:28:20;;;;;;;3.15;1.35;;;;;;;-148.88;86.72;-17125.47;5072294;28;20024;-89
2024/01/29 05:30:46;;;;;;;4.88;1.58;;;;;;;-148.88;86.28;-17125.47;5071923;28;20483;-87
2024/01/29 05:33:11;;;;;;;3.22;1.70;;;;;;;-148.88;86.17;-17125.47;5072431;28;20437;-87
2024/01/29 05:35:40;;;;;;;4.38;1.85;;;;;;;-148.88;85.92;-17125.47;5071794;28;20016;-86
2024/01/29 05:38:08;;;;;;;4.40;1.75;;;;;;;-148.88;86.10;-17125.47;5071449;28;20033;-87
2024/01/29 05:40:33;;;;;;;2.75;1.48;;;;;;;-148.88;85.53;-17125.47;5071546;28;20115;-87
2024/01/29 05:42:58;;;;;;;3.65;1.67;;;;;;;-148.88;85.51;-17125.47;5071738;28;20067;-86
2024/01/29 05:45:27;;;;;;;5.45;1.83;;;;;;;-148.88;85.59;-17125.47;5071624;28;20024;-87
2024/01/29 05:47:52;;;;;;;3.20;1.50;;;;;;;-148.88;85.61;-17125.47;5074949;28;20016;-87
2024/01/29 05:50:18;;;;;;;3.58;1.73;;;;;;;-148.88;85.43;-17125.47;5075295;28;20116;-87
2024/01/29 05:52:43;;;;;;;4.65;1.75;;;;;;;-148.88;84.92;-17125.47;5075486;28;20029;-87
2024/01/29 05:55:09;;;;;;;5.72;1.38;;;;;;;-148.88;85.37;-17125.47;5075378;28;20059;-88
2024/01/29 05:57:34;;;;;;;3.78;2.03;;;;;;;-148.88;84.93;-17125.47;5075346;28;20028;-87
2024/01/29 06:00:00;;;;;;;4.18;1.70;;;;;;;-148.88;84.56;-17125.47;5075140;28;20085;-87
2024/01/29 06:02:25;;;;;;;6.68;2.13;;;;;;;-148.88;84.97;-17125.47;5076668;28;20031;-87
2024/01/29 06:04:50;;;;;;;6.35;1.38;;;;;;;-148.88;84.73;-17125.47;5074761;28;20494;-87
2024/01/29 06:07:16;;;;;;;4.32;1.92;;;;;;;-148.88;84.93;-17125.47;5076198;28;20031;-87
2024/01/29 06:09:41;;;;;;;3.65;1.60;;;;;;;-148.88;84.98;-17125.47;5076132;28;20352;-87
2024/01/29 06:12:07;;;;;;;4.18;1.48;;;;;;;-148.88;85.15;-17125.47;5075173;28;20113;-87
2024/01/29 06:14:32;;;;;;;3.05;1.40;;;;;;;-148.88;85.87;-17125.47;5076410;28;20027;-88
2024/01/29 06:17:00;;;;;;;3.40;1.60;;;;;;;-148.88;85.93;-17125.47;5075628;28;20048;-87
2024/01/29 06:19:26;;;;;;;4.72;1.80;;;;;;;-148.88;86.91;-17125.47;5075120;28;20025;-88
2024/01/29 06:21:51;;;;;;;6.07;1.85;;;;;;;-148.88;87.46;-17125.47;5074796;28;20032;-88
2024/01/29 06:24:20;;;;;;;4.07;1.60;;;;;;;-148.88;87.26;-17125.47;5074666;28;20115;-87
2024/01/29 06:26:45;;;;;;;3.17;1.60;;;;;;;-148.88;87.37;-17125.47;5074645;28;20035;-88
2024/01/29 06:29:13;;;;;;;3.15;1.60;;;;;;;-148.88;87.36;-17125.47;5074782;28;20029;-89
2024/01/29 06:31:40;;;;;;;3.17;1.50;;;;;;;-148.88;87.45;-17125.47;5074779;28;20066;-88
2024/01/29 06:34:06;;;;;;;4.82;1.75;;;;;;;-148.88;87.24;-17125.47;5074603;28;20024;-87
2024/01/29 06:36:31;;;;;;;3.25;1.60;;;;;;;-148.88;87.52;-17125.47;5074084;28;20032;-86
2024/01/29 06:39:00;;;;;;;3.33;1.40;;;;;;;-148.88;87.23;-17125.47;5074343;28;20108;-87
2024/01/29 06:41:27;;;;;;;3.55;1.48;;;;;;;-148.88;87.18;-17125.47;5075067;28;20490;-85
2024/01/29 06:43:59;;;;;;;4.25;1.77;;;;;;;-148.88;86.45;-17125.47;5074107;28;20031;-85
2024/01/29 06:46:24;;;;;;;4.00;1.75;;;;;;;-148.88;86.06;-17125.47;5074075;28;20024;-86
2024/01/29 06:48:50;;;;;;;4.90;1.90;;;;;;;-148.88;86.34;-17125.47;5074665;28;20368;-86
2024/01/29 06:51:16;;;;;;;4.57;2.25;;;;;;;-148.88;87.26;-17125.47;5074534;28;20036;-86
2024/01/29 06:53:42;;;;;;;3.55;1.95;;;;;;;-148.88;87.08;-17125.47;5073830;28;20108;-86
2024/01/29 06:56:07;;;;;;;4.05;2.35;;;;;;;-148.88;86.94;-17125.47;5074497;28;20074;-86
2024/01/29 06:58:36;;;;;;;3.25;1.80;;;;;;;-148.88;87.45;-17125.47;5073849;28;20028;-86
2024/01/29 07:01:03;;;;;;;4.95;1.70;;;;;;;-148.88;87.62;-17125.47;5074327;28;20028;-86
2024/01/29 07:03:28;;;;;;;4.57;1.70;;;;;;;-148.88;88.08;-17125.47;5073667;28;20028;-87
2024/01/29 07:05:57;;;;;;;6.80;2.20;;;;;;;-148.88;88.87;-17125.47;5074633;28;20403;-87
2024/01/29 07:08:26;;;;;;;6.03;2.30;;;;;;;-148.88;88.97;-17125.47;5074109;28;20085;-85
2024/01/29 07:10:51;;;;;;;7.00;2.47;;;;;;;-148.88;89.90;-17125.47;5075409;28;20025;-86
2024/01/29 07:13:17;;;;;;;4.00;1.98;;;;;;;-148.88;90.56;-17125.47;5073620;28;20439;-86
2024/01/29 07:15:42;;;;;;;6.65;2.30;;;;;;;-148.88;91.19;-17125.47;5074066;28;20017;-86
2024/01/29 07:18:08;;;;;;;4.97;2.10;;;;;;;-148.88;92.58;-17125.47;5073753;28;20388;-87
2024/01/29 07:20:39;;;;;;;4.63;1.75;;;;;;;-148.88;93.08;-17125.47;5073122;28;20083;-87
2024/01/29 07:23:05;;;;;;;5.85;2.50;;;;;;;-148.88;93.17;-17125.47;5074284;28;20025;-88
2024/01/29 07:25:31;;;;;;;4.35;2.13;;;;;;;-148.88;93.92;-17125.47;5073202;28;20482;-87
2024/01/29 07:28:03;;;;;;;5.55;2.45;;;;;;;-148.88;94.84;-17125.47;5072862;28;20040;-87
2024/01/29 07:30:29;;;;;;;5.78;2.33;;;;;;;-148.88;95.59;-17125.47;5073391;28;20525;-87
2024/01/29 07:32:54;;;;;;;8.13;2.20;;;;;;;-148.88;95.71;-17125.47;5072516;28;20029;-87
2024/01/29 07:35:20;;;;;;;3.47;2.13;;;;;;;-148.88;96.21;-17125.47;5072724;28;20028;-86
2024/01/29 07:37:45;;;;;;;7.45;2.13;;;;;;;-148.88;95.67;-17125.47;5072595;28;20557;-86
2024/01/29 07:40:11;;;;;;;3.00;1.65;;;;;;;-148.88;95.79;-17125.47;5072581;28;20384;-86
2024/01/29 07:42:40;;;;;;;7.03;2.45;;;;;;;-148.88;96.40;-17125.47;5074679;28;20032;-85
2024/01/29 07:45:05;;;;;;;5.13;2.10;;;;;;;-148.88;96.38;-17125.47;5072915;28;20432;-87
2024/01/29 07:47:31;;;;;;;11.27;2.63;;;;;;;-148.88;96.57;-17125.47;5073182;28;20111;-86
2024/01/29 07:49:56;;;;;;;6.28;2.47;;;;;;;-148.88;97.96;-17125.47;5073067;28;20383;-86
2024/01/29 07:52:22;;;;;;;5.18;2.00;;;;;;;-148.88;97.65;-17125.47;5073842;28;20032;-86
2024/01/29 07:54:47;;;;;;;5.22;2.25;;;;;;;-148.88;98.01;-17125.47;5073104;28;20020;-87
2024/01/29 07:57:13;;;;;;;3.85;2.25;;;;;;;-148.88;97.44;-17125.47;5072100;28;20029;-87
2024/01/29 07:59:39;;;;;;;5.40;2.20;;;;;;;-148.88;97.88;-17125.47;5073453;28;20482;-86
2024/01/29 08:02:07;;;;;;;5.50;1.90;;;;;;;-148.88;97.95;-17125.47;5073667;28;20032;-86
2024/01/29 08:04:38;;;;;;;5.50;1.98;;;;;;;-148.88;97.20;-17125.47;5072564;28;20024;-86
2024/01/29 08:07:06;;;;;;;8.82;2.00;;;;;;;-148.88;97.22;-17125.47;5073160;28;20063;-86
2024/01/29 08:09:31;;;;;;;7.13;1.98;;;;;;;-148.88;97.15;-17125.47;5071888;28;20021;-88
2024/01/29 08:11:57;;;;;;;5.97;2.47;;;;;;;-148.88;96.89;-17125.47;5073513;28;20020;-87
2024/01/29 08:14:25;;;;;;;4.93;2.10;;;;;;;-148.88;96.62;-17125.47;5071953;28;20025;-88
2024/01/29 08:16:51;;;;;;;6.05;3.22;;;;;;;-148.88;96.76;-17125.47;5074167;28;20035;-87
2024/01/29 08:19:17;;;;;;;4.15;2.13;;;;;;;-148.88;96.59;-17125.47;5073736;28;20024;-87
2024/01/29 08:21:42;;;;;;;4.95;2.13;;;;;;;-148.88;96.40;-17125.47;5073456;28;20055;-88
2024/01/29 08:24:07;;;;;;;7.78;2.40;;;;;;;-148.88;95.78;-17125.47;5070984;28;20426;-86
2024/01/29 08:26:33;;;;;;;4.35;2.10;;;;;;;-148.88;95.92;-17125.47;5072114;28;20031;-87
2024/01/29 08:28:59;;;;;;;5.53;2.42;;;;;;;-148.88;95.72;-17125.47;5073248;28;20032;-86
2024/01/29 08:31:25;;;;;;;9.15;2.60;;;;;;;-148.88;96.19;-17125.47;5072347;28;20035;-87
2024/01/29 08:33:51;;;;;;;4.82;2.72;;;;;;;-148.88;96.27;-17125.47;5071780;28;20048;-86
2024/01/29 08:36:20;;;;;;;6.32;2.58;;;;;;;-148.88;95.19;-17125.47;5072511;28;20483;-87
2024/01/29 08:38:46;;;;;;;5.25;2.33;;;;;;;-148.88;95.30;-17125.47;5071607;28;20035;-87
2024/01/29 08:41:15;;;;;;;4.43;2.47;;;;;;;-148.88;95.06;-17125.47;5071417;28;20038;-87
2024/01/29 08:43:41;;;;;;;5.20;2.90;;;;;;;-148.88;94.54;-17125.47;5071640;28;20031;-87
2024/01/29 08:46:07;;;;;;;7.22;2.72;;;;;;;-148.88;93.52;-17125.47;5071586;28;20024;-87
2024/01/29 08:48:32;;;;;;;5.93;2.67;;;;;;;-148.88;92.36;-17125.47;5071340;28;20027;-87
2024/01/29 08:50:58;;;;;;;7.30;3.03;;;;;;;-148.88;92.44;-17125.47;5072893;28;20059;-86
2024/01/29 08:53:25;;;;;;;5.28;3.15;;;;;;;-148.88;91.11;-17125.47;5071260;28;20024;-87
2024/01/29 08:55:50;;;;;;;6.82;2.90;;;;;;;-148.88;90.62;-17125.47;5071311;28;20021;-86
2024/01/29 08:58:15;;;;;;;4.18;2.47;;;;;;;-148.88;89.67;-17125.47;5072624;28;20077;-86
2024/01/29 09:00:41;;;;;;;5.10;2.50;;;;;;;-148.88;89.12;-17125.47;5071438;28;20382;-86
2024/01/29 09:03:07;;;;;;;3.83;2.15;;;;;;;-148.88;89.05;-17125.47;5071910;28;20028;-86
2024/01/29 09:05:32;;;;;;;6.78;2.80;;;;;;;-148.88;87.96;-17125.47;5071233;28;20347;-87
2024/01/29 09:07:57;;;;;;;4.32;2.33;;;;;;;-148.88;86.28;-17125.47;5071763;28;20398;-86
2024/01/29 09:10:23;;;;;;;6.95;2.70;;;;;;;-148.88;85.25;-17125.47;5071913;28;20121;-86
2024/01/29 09:12:48;;;;;;;5.63;2.22;;;;;;;-148.88;82.17;-17125.47;5071538;28;20032;-86
2024/01/29 09:15:14;;;;;;;5.40;2.42;;;;;;;-148.88;80.24;-17125.47;5071279;28;20024;-86
2024/01/29 09:17:40;;;;;;;4.35;2.05;;;;;;;-148.88;78.84;-17125.47;5070788;28;20059;-86
2024/01/29 09:20:09;;;;;;;6.28;2.45;;;;;;;-148.88;77.54;-17125.47;5071609;28;20020;-86
2024/01/29 09:22:35;;;;;;;7.65;2.53;;;;;;;-148.88;77.26;-17125.47;5074653;28;20499;-85
2024/01/29 09:25:00;;;;;;;4.68;1.98;;;;;;;-148.88;77.20;-17125.47;5075298;28;20052;-86
2024/01/29 09:27:26;;;;;;;5.85;2.58;;;;;;;-148.88;76.08;-17125.47;5076103;28;20075;-87
2024/01/29 09:29:51;;;;;;;7.13;2.80;;;;;;;-148.88;75.76;-17125.47;5074797;28;20052;-86
2024/01/29 09:32:16;;;;;;;5.38;2.38;;;;;;;-148.88;77.01;-17125.47;5074752;28;20025;-86
2024/01/29 09:34:42;;;;;;;6.25;2.70;;;;;;;-148.88;78.40;-17125.47;5075228;28;20020;-85
2024/01/29 09:37:07;;;;;;;7.97;2.20;;;;;;;-148.88;78.86;-17125.47;5074649;28;20055;-86
2024/01/29 09:39:33;;;;;;;4.28;2.10;;;;;;;-148.88;79.41;-17125.47;5075409;28;20021;-86
2024/01/29 09:42:06;;;;;;;6.78;2.75;;;;;;;-148.88;78.90;-17125.47;5075484;28;20055;-85
2024/01/29 09:44:38;;;;;;;7.00;2.00;;;;;;;-148.88;78.82;-17125.47;5076358;28;20096;-85
2024/01/29 09:47:05;;;;;;;3.72;2.25;;;;;;;-148.88;79.18;-17125.47;5075557;28;20434;-86
2024/01/29 09:49:33;;;;;;;6.40;2.75;;;;;;;-148.88;78.97;-17125.47;5075118;28;20021;-85
2024/01/29 09:52:14;;;;;;;6.15;2.38;;;;;;;-148.88;78.61;-17125.47;5076621;28;20494;-86
2024/01/29 09:54:45;;;;;;;3.85;2.08;;;;;;;-148.88;77.83;-17125.47;5073898;22;20049;-78
2024/01/29 09:57:15;;;;;;;5.90;2.80;;;;;;;-148.88;77.93;-17125.47;5060348;28;20024;-78
2024/01/29 09:59:41;;;;;;;6.65;2.25;;;;;;;-148.88;77.53;-17125.47;5057483;28;20112;-78
2024/01/29 10:02:08;;;;;;;6.75;2.85;;;;;;;-148.88;76.79;-17125.47;5058486;28;20071;-78
2024/01/29 10:04:34;;;;;;;6.43;3.25;;;;;;;-148.88;76.73;-17125.47;5058284;28;20051;-78
2024/01/29 10:06:59;;;;;;;5.70;2.85;;;;;;;-148.88;77.40;-17125.47;5058247;28;20451;-78
2024/01/29 10:09:25;;;;;;;9.50;3.10;;;;;;;-148.88;76.52;-17125.47;5059065;28;20033;-78
2024/01/29 10:11:51;;;;;;;6.55;3.13;;;;;;;-148.88;76.76;-17125.47;5056775;28;20498;-79
2024/01/29 10:14:16;;;;;;;6.07;2.45;;;;;;;-148.88;76.96;-17125.47;5059568;28;20092;-78
2024/01/29 10:16:42;;;;;;;6.88;3.28;;;;;;;-148.88;78.58;-17125.47;5061994;28;20480;-79
2024/01/29 10:19:09;;;;;;;5.68;2.90;;;;;;;-148.88;78.71;-17125.47;5061861;28;20513;-79
2024/01/29 10:21:43;;;;;;;7.00;3.17;;;;;;;-148.88;78.25;-17125.47;5066601;28;20222;-79
2024/01/29 10:24:16;;;;;;;5.30;2.95;;;;;;;-148.88;78.56;-17125.47;5066831;28;20020;-79
2024/01/29 10:26:43;;;;;;;8.35;2.83;;;;;;;-148.88;76.65;-17125.47;5067203;28;20029;-79
2024/01/29 10:29:09;;;;;;;7.35;4.30;;;;;;;-148.88;76.76;-17125.47;5062986;28;20047;-78
2024/01/29 10:31:35;;;;;;;5.55;2.75;;;;;;;-148.88;76.73;-17125.47;5063996;28;20017;-78
2024/01/29 10:34:02;;;;;;;7.82;3.13;;;;;;;-148.88;75.38;-17125.47;5062633;28;20028;-78
2024/01/29 10:36:28;;;;;;;7.32;4.10;;;;;;;-148.88;74.54;-17125.47;5064429;28;20028;-78
2024/01/29 10:38:54;;;;;;;9.32;2.97;;;;;;;-148.88;77.29;-17125.47;5064853;28;20080;-78
2024/01/29 10:41:22;;;;;;;6.85;2.70;;;;;;;-148.88;72.90;-17125.47;5067115;28;20185;-78
2024/01/29 10:43:49;;;;;;;4.80;2.63;;;;;;;-148.88;74.54;-17125.47;5065562;28;20333;-79
2024/01/29 10:46:21;;;;;;;5.82;2.72;;;;;;;-148.88;74.24;-17125.47;5066406;28;20084;-78
2024/01/29 10:48:48;;;;;;;6.90;3.67;;;;;;;-148.88;74.63;-17125.47;5063777;28;20021;-79
2024/01/29 10:51:14;;;;;;;5.28;3.35;;;;;;;-148.88;71.16;-17125.47;5065720;28;20032;-80
2024/01/29 10:53:41;;;;;;;7.90;3.30;;;;;;;-148.88;70.90;-17125.47;5067021;28;20028;-80
2024/01/29 10:56:09;;;;;;;6.38;3.20;;;;;;;-148.88;69.28;-17125.47;5063854;28;20047;-79
2024/01/29 10:58:35;;;;;;;3.85;3.00;;;;;;;-148.88;66.23;-17125.47;5061475;28;20051;-79
2024/01/29 11:01:00;;;;;;;5.30;3.03;;;;;;;-148.88;64.61;-17125.47;5061366;28;20032;-80
2024/01/29 11:03:26;;;;;;;5.70;3.20;;;;;;;-148.88;64.58;-17125.47;5063326;28;20052;-79
2024/01/29 11:06:25;;;;;;;5.18;3.05;;;;;;;-148.88;63.85;-17125.47;5065177;28;20058;-79